Time;durP1;ratioP1;P1;durP2;ratioP2;P2;SDS_P1;SDS_P2;PMS_P1;PMS_P2;Temp;Humidity;BMP_temperature;BMP_pressure;BME280_temperature;BME280_humidity;BME280_pressure;Samples;Min_cycle;Max_cycle;Signal;HPM_P1;HPM_P2
2023/11/19 00:00:12;;;;;;;0.40;0.40;;;;;;;;;;6182429;23;20287;-86
2023/11/19 00:02:40;;;;;;;0.50;0.47;;;;;;;;;;6156187;23;20063;-86
2023/11/19 00:05:09;;;;;;;0.20;0.20;;;;;;;;;;6182239;23;20017;-85
2023/11/19 00:07:36;;;;;;;0.35;0.35;;;;;;;;;;6156529;23;20029;-85
2023/11/19 00:10:06;;;;;;;0.40;0.40;;;;;;;;;;6181362;23;20394;-86
2023/11/19 00:12:34;;;;;;;0.30;0.30;;;;;;;;;;6156710;23;20405;-87
2023/11/19 00:15:01;;;;;;;0.40;0.32;;;;;;;;;;6156328;23;20025;-87
2023/11/19 00:17:28;;;;;;;0.30;0.30;;;;;;;;;;6156149;23;20017;-87
2023/11/19 00:19:56;;;;;;;0.38;0.32;;;;;;;;;;6181714;23;20450;-86
2023/11/19 00:22:25;;;;;;;0.25;0.25;;;;;;;;;;6155538;23;20021;-86
2023/11/19 00:24:53;;;;;;;0.30;0.30;;;;;;;;;;6155485;22;20092;-86
2023/11/19 00:27:20;;;;;;;0.65;0.28;;;;;;;;;;6182208;23;20342;-86
2023/11/19 00:29:47;;;;;;;0.30;0.30;;;;;;;;;;6156037;23;20021;-86
2023/11/19 00:32:15;;;;;;;0.10;0.10;;;;;;;;;;6181975;23;20138;-87
2023/11/19 00:34:44;;;;;;;0.20;0.20;;;;;;;;;;6156415;23;20033;-86
2023/11/19 00:37:11;;;;;;;0.17;0.17;;;;;;;;;;6156197;23;20064;-86
2023/11/19 00:39:39;;;;;;;0.43;0.25;;;;;;;;;;6182241;23;20060;-85
2023/11/19 00:42:06;;;;;;;1.35;0.15;;;;;;;;;;6156509;23;20017;-86
2023/11/19 00:44:33;;;;;;;0.10;0.10;;;;;;;;;;6182452;23;20029;-86
2023/11/19 00:47:01;;;;;;;0.10;0.10;;;;;;;;;;6183657;23;20025;-86
2023/11/19 00:49:28;;;;;;;0.20;0.20;;;;;;;;;;6182919;23;20357;-85
2023/11/19 00:51:55;;;;;;;0.38;0.25;;;;;;;;;;6182044;23;20099;-86
2023/11/19 00:54:25;;;;;;;0.25;0.10;;;;;;;;;;6156061;23;20025;-84
2023/11/19 00:56:53;;;;;;;0.10;0.10;;;;;;;;;;6156413;23;20029;-86
2023/11/19 00:59:20;;;;;;;0.10;0.10;;;;;;;;;;6155854;23;20033;-87
2023/11/19 01:01:48;;;;;;;0.10;0.10;;;;;;;;;;6181491;23;20067;-86
2023/11/19 01:04:15;;;;;;;0.10;0.10;;;;;;;;;;6155274;23;20051;-86
2023/11/19 01:06:43;;;;;;;1.30;0.22;;;;;;;;;;6181940;23;20022;-86
2023/11/19 01:09:13;;;;;;;0.20;0.15;;;;;;;;;;6156899;23;20070;-87
2023/11/19 01:11:40;;;;;;;1.60;0.30;;;;;;;;;;6155793;23;20021;-87
2023/11/19 01:14:07;;;;;;;0.20;0.20;;;;;;;;;;6155914;23;20021;-87
2023/11/19 01:16:35;;;;;;;0.20;0.20;;;;;;;;;;6155701;23;20519;-85
2023/11/19 01:19:04;;;;;;;0.20;0.20;;;;;;;;;;6155512;23;20066;-86
2023/11/19 01:21:43;;;;;;;0.20;0.20;;;;;;;;;;6158338;23;20462;-85
2023/11/19 01:24:13;;;;;;;0.10;0.10;;;;;;;;;;6181330;23;20021;-85
2023/11/19 01:26:45;;;;;;;1.67;0.10;;;;;;;;;;6155105;22;20040;-83
2023/11/19 01:29:16;;;;;;;0.10;0.10;;;;;;;;;;6155695;23;20021;-83
2023/11/19 01:31:43;;;;;;;0.35;0.35;;;;;;;;;;6181484;23;20025;-86
2023/11/19 01:34:11;;;;;;;0.20;0.20;;;;;;;;;;6155342;23;20025;-84
2023/11/19 01:36:39;;;;;;;1.27;0.20;;;;;;;;;;6155876;23;20112;-85
2023/11/19 01:39:07;;;;;;;0.45;0.28;;;;;;;;;;6181157;23;20112;-84
2023/11/19 01:41:38;;;;;;;0.20;0.20;;;;;;;;;;6155463;23;20077;-84
2023/11/19 01:44:12;;;;;;;0.55;0.30;;;;;;;;;;6155022;23;20029;-83
2023/11/19 01:46:40;;;;;;;0.55;0.20;;;;;;;;;;6156021;23;20327;-85
2023/11/19 01:49:08;;;;;;;0.17;0.17;;;;;;;;;;6181572;23;20525;-85
2023/11/19 01:51:36;;;;;;;0.10;0.10;;;;;;;;;;6155244;23;20024;-87
2023/11/19 01:54:03;;;;;;;0.10;0.10;;;;;;;;;;6154749;23;20056;-86
2023/11/19 01:56:31;;;;;;;0.28;0.28;;;;;;;;;;6155209;23;20074;-85
2023/11/19 01:58:58;;;;;;;0.20;0.20;;;;;;;;;;6156141;23;20025;-87
2023/11/19 02:01:25;;;;;;;0.10;0.10;;;;;;;;;;6156193;23;20107;-86
2023/11/19 02:03:53;;;;;;;0.30;0.30;;;;;;;;;;6155822;23;20025;-86
2023/11/19 02:06:21;;;;;;;0.20;0.20;;;;;;;;;;6155882;23;20086;-86
2023/11/19 02:08:48;;;;;;;0.10;0.10;;;;;;;;;;6181096;23;20025;-86
2023/11/19 02:11:15;;;;;;;0.15;0.15;;;;;;;;;;6155714;23;20130;-86
2023/11/19 02:13:44;;;;;;;0.10;0.10;;;;;;;;;;6181361;23;20079;-86
2023/11/19 02:16:11;;;;;;;0.40;0.20;;;;;;;;;;6155296;22;20480;-86
2023/11/19 02:18:39;;;;;;;0.20;0.20;;;;;;;;;;6156282;23;20342;-86
2023/11/19 02:21:06;;;;;;;0.95;0.20;;;;;;;;;;6155511;23;20025;-86
2023/11/19 02:23:33;;;;;;;0.20;0.10;;;;;;;;;;6154551;23;20051;-86
2023/11/19 02:26:01;;;;;;;0.13;0.13;;;;;;;;;;6155740;23;20025;-85
2023/11/19 02:28:28;;;;;;;1.42;0.40;;;;;;;;;;6181380;23;20450;-86
2023/11/19 02:30:56;;;;;;;0.10;0.10;;;;;;;;;;6181440;23;20021;-86
2023/11/19 02:33:24;;;;;;;0.20;0.20;;;;;;;;;;6155364;23;20025;-86
2023/11/19 02:35:52;;;;;;;0.28;0.20;;;;;;;;;;6155590;23;20105;-85
2023/11/19 02:38:21;;;;;;;0.15;0.15;;;;;;;;;;6155739;23;20029;-86
2023/11/19 02:40:49;;;;;;;0.10;0.10;;;;;;;;;;6181568;23;20492;-85
2023/11/19 02:43:16;;;;;;;1.65;0.20;;;;;;;;;;6155231;23;20458;-85
2023/11/19 02:45:45;;;;;;;0.00;0.00;;;;;;;;;;6155292;23;20021;-85
2023/11/19 02:48:14;;;;;;;0.10;0.10;;;;;;;;;;6181155;23;20461;-84
2023/11/19 02:50:42;;;;;;;0.03;0.03;;;;;;;;;;6155478;23;20074;-86
2023/11/19 02:53:10;;;;;;;0.03;0.03;;;;;;;;;;6181075;23;20048;-84
2023/11/19 02:55:39;;;;;;;0.10;0.10;;;;;;;;;;6181068;23;20025;-85
2023/11/19 02:58:11;;;;;;;0.10;0.10;;;;;;;;;;6155228;23;20466;-85
2023/11/19 03:00:47;;;;;;;0.00;0.00;;;;;;;;;;6155202;23;20023;-85
2023/11/19 03:03:20;;;;;;;0.10;0.10;;;;;;;;;;6155115;23;20059;-86
2023/11/19 03:05:48;;;;;;;0.10;0.10;;;;;;;;;;6155230;23;20338;-85
2023/11/19 03:08:18;;;;;;;0.10;0.10;;;;;;;;;;6154905;23;20082;-84
2023/11/19 03:10:49;;;;;;;0.10;0.10;;;;;;;;;;6155417;23;20021;-85
2023/11/19 03:13:19;;;;;;;1.05;0.10;;;;;;;;;;6154267;23;20029;-83
2023/11/19 03:15:46;;;;;;;0.10;0.10;;;;;;;;;;6153820;23;20442;-84
2023/11/19 03:18:14;;;;;;;0.20;0.10;;;;;;;;;;6155075;23;20104;-85
2023/11/19 03:20:41;;;;;;;0.30;0.10;;;;;;;;;;6180949;23;20021;-85
2023/11/19 03:23:08;;;;;;;0.10;0.10;;;;;;;;;;6155248;23;20032;-85
2023/11/19 03:25:37;;;;;;;0.10;0.10;;;;;;;;;;6156007;23;20021;-85
2023/11/19 03:28:04;;;;;;;0.10;0.10;;;;;;;;;;6155393;22;20027;-84
2023/11/19 03:30:32;;;;;;;0.03;0.03;;;;;;;;;;6182222;23;20446;-87
2023/11/19 03:33:01;;;;;;;0.20;0.10;;;;;;;;;;6156656;23;20049;-86
2023/11/19 03:35:29;;;;;;;0.10;0.10;;;;;;;;;;6181349;23;20096;-84
2023/11/19 03:37:56;;;;;;;0.00;0.00;;;;;;;;;;6155547;23;20398;-86
2023/11/19 03:40:24;;;;;;;0.03;0.03;;;;;;;;;;6182064;23;20032;-85
2023/11/19 03:42:52;;;;;;;0.63;0.03;;;;;;;;;;6156234;23;20067;-86
2023/11/19 03:45:19;;;;;;;0.10;0.10;;;;;;;;;;6156069;23;20461;-85
2023/11/19 03:47:47;;;;;;;0.10;0.10;;;;;;;;;;6184261;23;20078;-87
2023/11/19 03:50:15;;;;;;;0.13;0.00;;;;;;;;;;6160412;23;20028;-85
2023/11/19 03:52:43;;;;;;;0.00;0.00;;;;;;;;;;6181370;23;20021;-86
2023/11/19 03:55:12;;;;;;;0.10;0.00;;;;;;;;;;6155717;23;20411;-85
2023/11/19 03:57:39;;;;;;;0.00;0.00;;;;;;;;;;6155522;22;20017;-86
2023/11/19 04:00:10;;;;;;;0.00;0.00;;;;;;;;;;6182088;23;20103;-85
2023/11/19 04:02:37;;;;;;;0.10;0.10;;;;;;;;;;6156031;23;20033;-86
2023/11/19 04:05:06;;;;;;;1.15;0.22;;;;;;;;;;6155720;23;20100;-84
2023/11/19 04:07:34;;;;;;;0.50;0.50;;;;;;;;;;6156116;23;20513;-86
2023/11/19 04:10:01;;;;;;;0.28;0.28;;;;;;;;;;6182074;23;20025;-86
2023/11/19 04:12:29;;;;;;;0.30;0.30;;;;;;;;;;6156553;23;20028;-85
2023/11/19 04:14:56;;;;;;;0.40;0.40;;;;;;;;;;6156124;23;20021;-85
2023/11/19 04:17:26;;;;;;;0.30;0.30;;;;;;;;;;6157156;23;20058;-86
2023/11/19 04:19:54;;;;;;;0.10;0.10;;;;;;;;;;6181948;23;20385;-86
2023/11/19 04:22:21;;;;;;;0.17;0.10;;;;;;;;;;6181945;23;20021;-85
2023/11/19 04:24:48;;;;;;;0.10;0.10;;;;;;;;;;6181212;23;20025;-84
2023/11/19 04:27:16;;;;;;;0.40;0.10;;;;;;;;;;6155916;23;20025;-85
2023/11/19 04:29:43;;;;;;;0.17;0.10;;;;;;;;;;6156318;23;20032;-86
2023/11/19 04:32:10;;;;;;;0.00;0.00;;;;;;;;;;6182006;23;20531;-86
2023/11/19 04:34:37;;;;;;;0.20;0.17;;;;;;;;;;6155603;23;20025;-86
2023/11/19 04:37:05;;;;;;;0.28;0.28;;;;;;;;;;6182158;23;20346;-85
2023/11/19 04:39:35;;;;;;;0.95;0.30;;;;;;;;;;6157087;23;20346;-87
2023/11/19 04:42:04;;;;;;;0.10;0.10;;;;;;;;;;6156247;23;20017;-84
2023/11/19 04:44:31;;;;;;;0.10;0.10;;;;;;;;;;6155798;23;20029;-86
2023/11/19 04:46:59;;;;;;;0.30;0.20;;;;;;;;;;6156220;23;20017;-85
2023/11/19 04:49:27;;;;;;;0.20;0.13;;;;;;;;;;6155881;23;20032;-85
2023/11/19 04:51:54;;;;;;;0.10;0.10;;;;;;;;;;6155640;22;20116;-86
2023/11/19 04:54:22;;;;;;;0.32;0.32;;;;;;;;;;6155972;23;20033;-85
2023/11/19 04:56:50;;;;;;;0.20;0.20;;;;;;;;;;6181939;23;20021;-85
2023/11/19 04:59:17;;;;;;;0.10;0.10;;;;;;;;;;6156227;23;20040;-85
2023/11/19 05:01:48;;;;;;;0.10;0.10;;;;;;;;;;6155879;23;20286;-83
2023/11/19 05:04:15;;;;;;;0.10;0.10;;;;;;;;;;6181612;23;20323;-85
2023/11/19 05:06:42;;;;;;;0.20;0.20;;;;;;;;;;6156120;23;20051;-85
2023/11/19 05:09:12;;;;;;;0.20;0.20;;;;;;;;;;6155615;23;20021;-86
2023/11/19 05:11:40;;;;;;;0.20;0.20;;;;;;;;;;6156078;23;20465;-86
2023/11/19 05:14:10;;;;;;;0.00;0.00;;;;;;;;;;6155897;23;20047;-85
2023/11/19 05:16:40;;;;;;;0.00;0.00;;;;;;;;;;6181781;23;20030;-86
2023/11/19 05:19:08;;;;;;;0.10;0.10;;;;;;;;;;6156222;23;20025;-84
2023/11/19 05:21:36;;;;;;;0.00;0.00;;;;;;;;;;6156146;23;20122;-86
2023/11/19 05:24:06;;;;;;;0.00;0.00;;;;;;;;;;6155911;23;20036;-86
2023/11/19 05:26:33;;;;;;;0.10;0.10;;;;;;;;;;6155779;23;20021;-85
2023/11/19 05:29:01;;;;;;;0.00;0.00;;;;;;;;;;6155468;23;20025;-85
2023/11/19 05:31:28;;;;;;;0.10;0.10;;;;;;;;;;6155633;23;20021;-85
2023/11/19 05:33:55;;;;;;;0.30;0.10;;;;;;;;;;6155896;23;20029;-86
2023/11/19 05:36:23;;;;;;;0.00;0.00;;;;;;;;;;6156080;23;20021;-83
2023/11/19 05:38:50;;;;;;;0.10;0.10;;;;;;;;;;6182128;23;20074;-85
2023/11/19 05:41:17;;;;;;;0.00;0.00;;;;;;;;;;6181158;23;20581;-85
2023/11/19 05:43:45;;;;;;;0.10;0.10;;;;;;;;;;6155610;23;20029;-85
2023/11/19 05:46:13;;;;;;;0.22;0.22;;;;;;;;;;6155640;23;20017;-84
2023/11/19 05:48:43;;;;;;;0.10;0.10;;;;;;;;;;6181886;23;20499;-85
2023/11/19 05:51:10;;;;;;;0.50;0.10;;;;;;;;;;6155643;23;20021;-85
2023/11/19 05:53:38;;;;;;;0.00;0.00;;;;;;;;;;6155005;23;20021;-85
2023/11/19 05:56:09;;;;;;;0.10;0.10;;;;;;;;;;6181447;23;20021;-85
2023/11/19 05:58:37;;;;;;;0.10;0.10;;;;;;;;;;6155918;23;20017;-85
2023/11/19 06:01:07;;;;;;;0.10;0.10;;;;;;;;;;6155893;23;20032;-85
2023/11/19 06:03:36;;;;;;;0.10;0.10;;;;;;;;;;6181478;23;20021;-85
2023/11/19 06:06:05;;;;;;;0.10;0.10;;;;;;;;;;6155531;23;20017;-84
2023/11/19 06:08:32;;;;;;;0.10;0.10;;;;;;;;;;6154711;23;20025;-85
2023/11/19 06:11:01;;;;;;;0.00;0.00;;;;;;;;;;6155533;23;20018;-85
2023/11/19 06:13:30;;;;;;;0.00;0.00;;;;;;;;;;6180749;23;20060;-84
2023/11/19 06:15:58;;;;;;;0.00;0.00;;;;;;;;;;6155527;23;20075;-85
2023/11/19 06:18:27;;;;;;;0.20;0.20;;;;;;;;;;6181671;23;20078;-85
2023/11/19 06:20:54;;;;;;;0.00;0.00;;;;;;;;;;6181158;23;20355;-86
2023/11/19 06:23:22;;;;;;;0.00;0.00;;;;;;;;;;6155235;23;20089;-83
2023/11/19 06:25:49;;;;;;;0.08;0.08;;;;;;;;;;6155235;23;20074;-84
2023/11/19 06:28:16;;;;;;;0.20;0.10;;;;;;;;;;6154955;23;20070;-84
2023/11/19 06:30:43;;;;;;;0.73;0.00;;;;;;;;;;6181404;23;20028;-84
2023/11/19 06:33:14;;;;;;;0.30;0.10;;;;;;;;;;6155929;23;20049;-84
2023/11/19 06:35:42;;;;;;;0.80;0.28;;;;;;;;;;6180586;23;20141;-84
2023/11/19 06:38:09;;;;;;;0.55;0.00;;;;;;;;;;6154980;23;20021;-83
2023/11/19 06:40:36;;;;;;;1.67;0.17;;;;;;;;;;6155416;23;20075;-84
2023/11/19 06:43:04;;;;;;;0.00;0.00;;;;;;;;;;6154757;23;20024;-84
2023/11/19 06:45:32;;;;;;;0.55;0.10;;;;;;;;;;6155091;23;20025;-84
2023/11/19 06:48:03;;;;;;;0.70;0.15;;;;;;;;;;6156322;23;20017;-83
2023/11/19 06:50:31;;;;;;;0.10;0.03;;;;;;;;;;6157908;23;20074;-85
2023/11/19 06:52:58;;;;;;;0.10;0.10;;;;;;;;;;6182295;23;20078;-84
2023/11/19 06:55:27;;;;;;;0.10;0.10;;;;;;;;;;6180902;23;20025;-84
2023/11/19 06:57:54;;;;;;;0.10;0.10;;;;;;;;;;6180125;23;20523;-83
2023/11/19 07:00:22;;;;;;;0.10;0.05;;;;;;;;;;6180739;23;20059;-82
2023/11/19 07:02:51;;;;;;;0.20;0.20;;;;;;;;;;6154492;23;20066;-84
2023/11/19 07:05:18;;;;;;;0.20;0.15;;;;;;;;;;6154343;23;20053;-84
2023/11/19 07:07:46;;;;;;;0.35;0.10;;;;;;;;;;6180788;23;20032;-84
2023/11/19 07:10:14;;;;;;;0.20;0.20;;;;;;;;;;6154783;23;20096;-84
2023/11/19 07:12:42;;;;;;;0.20;0.20;;;;;;;;;;6180380;23;20523;-83
2023/11/19 07:15:09;;;;;;;1.38;0.20;;;;;;;;;;6180225;23;20028;-85
2023/11/19 07:17:36;;;;;;;0.30;0.30;;;;;;;;;;6154377;23;20079;-85
2023/11/19 07:20:04;;;;;;;0.03;0.03;;;;;;;;;;6181113;23;20389;-85
2023/11/19 07:22:31;;;;;;;0.20;0.20;;;;;;;;;;6155254;23;20025;-84
2023/11/19 07:24:59;;;;;;;2.17;0.35;;;;;;;;;;6180537;23;20081;-85
2023/11/19 07:27:26;;;;;;;0.22;0.20;;;;;;;;;;6155008;23;20060;-84
2023/11/19 07:29:54;;;;;;;0.10;0.10;;;;;;;;;;6178250;23;20108;-85
2023/11/19 07:32:22;;;;;;;0.50;0.30;;;;;;;;;;6180255;23;20400;-83
2023/11/19 07:34:50;;;;;;;0.47;0.30;;;;;;;;;;6153272;23;20106;-85
2023/11/19 07:37:17;;;;;;;0.32;0.20;;;;;;;;;;6154736;23;20446;-85
2023/11/19 07:39:44;;;;;;;0.63;0.30;;;;;;;;;;6154607;23;20025;-84
2023/11/19 07:42:11;;;;;;;0.75;0.30;;;;;;;;;;6179958;23;20070;-85
2023/11/19 07:44:39;;;;;;;1.05;0.30;;;;;;;;;;6154525;23;20029;-85
2023/11/19 07:47:06;;;;;;;0.40;0.30;;;;;;;;;;6180992;23;20096;-85
2023/11/19 07:49:34;;;;;;;0.30;0.22;;;;;;;;;;6155043;23;20017;-85
2023/11/19 07:52:02;;;;;;;0.30;0.20;;;;;;;;;;6180632;23;20025;-85
2023/11/19 07:54:30;;;;;;;2.20;1.73;;;;;;;;;;6154151;23;20074;-84
2023/11/19 07:56:57;;;;;;;1.67;0.60;;;;;;;;;;6180743;23;20075;-85
2023/11/19 07:59:24;;;;;;;0.65;0.40;;;;;;;;;;6154811;23;20059;-84
2023/11/19 08:01:52;;;;;;;0.60;0.60;;;;;;;;;;6155130;23;20036;-84
2023/11/19 08:04:19;;;;;;;2.03;0.20;;;;;;;;;;6180323;23;20028;-85
2023/11/19 08:06:46;;;;;;;0.40;0.40;;;;;;;;;;6154991;23;20024;-85
2023/11/19 08:09:14;;;;;;;0.88;0.40;;;;;;;;;;6180993;23;20060;-87
2023/11/19 08:11:42;;;;;;;3.47;3.13;;;;;;;;;;6156090;23;20021;-84
2023/11/19 08:14:09;;;;;;;7.85;6.75;;;;;;;;;;6156117;23;20096;-84
2023/11/19 08:16:37;;;;;;;4.07;0.60;;;;;;;;;;6156131;23;20025;-85
2023/11/19 08:19:05;;;;;;;0.60;0.60;;;;;;;;;;6156203;23;20319;-84
2023/11/19 08:21:32;;;;;;;0.30;0.30;;;;;;;;;;6155848;23;20021;-85
2023/11/19 08:23:59;;;;;;;1.23;1.23;;;;;;;;;;6180873;23;20037;-84
2023/11/19 08:26:26;;;;;;;0.60;0.50;;;;;;;;;;6181941;23;20021;-85
2023/11/19 08:28:54;;;;;;;0.47;0.47;;;;;;;;;;6156589;23;20025;-84
2023/11/19 08:31:21;;;;;;;0.25;0.20;;;;;;;;;;6182097;23;20055;-84
2023/11/19 08:33:48;;;;;;;0.77;0.70;;;;;;;;;;6181678;23;20025;-84
2023/11/19 08:36:19;;;;;;;0.85;0.75;;;;;;;;;;6155736;23;20469;-84
2023/11/19 08:38:48;;;;;;;1.15;0.57;;;;;;;;;;6181373;23;20105;-84
2023/11/19 08:41:17;;;;;;;1.98;0.70;;;;;;;;;;6156042;23;20025;-83
2023/11/19 08:43:45;;;;;;;0.80;0.80;;;;;;;;;;6181032;23;20017;-84
2023/11/19 08:46:12;;;;;;;0.80;0.77;;;;;;;;;;6155884;23;20078;-84
2023/11/19 08:48:40;;;;;;;1.67;0.70;;;;;;;;;;6181778;23;20096;-84
2023/11/19 08:51:08;;;;;;;0.70;0.70;;;;;;;;;;6155447;23;20029;-84
2023/11/19 08:53:35;;;;;;;4.18;0.68;;;;;;;;;;6181686;23;20078;-85
2023/11/19 08:56:03;;;;;;;0.93;0.70;;;;;;;;;;6155546;23;20048;-85
2023/11/19 08:58:30;;;;;;;0.50;0.50;;;;;;;;;;6156188;23;20021;-85
2023/11/19 09:00:58;;;;;;;0.43;0.43;;;;;;;;;;6156122;23;20060;-85
2023/11/19 09:03:26;;;;;;;1.00;0.70;;;;;;;;;;6155615;23;20044;-84
2023/11/19 09:05:54;;;;;;;0.45;0.40;;;;;;;;;;6155584;23;20488;-85
2023/11/19 09:08:21;;;;;;;0.70;0.70;;;;;;;;;;6155664;23;20017;-85
2023/11/19 09:10:48;;;;;;;0.50;0.30;;;;;;;;;;6156064;23;20031;-85
2023/11/19 09:13:16;;;;;;;3.22;1.10;;;;;;;;;;6155812;23;20074;-84
2023/11/19 09:15:43;;;;;;;7.32;6.70;;;;;;;;;;6155254;23;20025;-84
2023/11/19 09:18:10;;;;;;;12.52;8.55;;;;;;;;;;6180884;23;20013;-84
2023/11/19 09:20:38;;;;;;;11.85;7.72;;;;;;;;;;6155116;23;20489;-84
2023/11/19 09:23:07;;;;;;;7.05;5.38;;;;;;;;;;6181203;23;20405;-85
2023/11/19 09:25:35;;;;;;;1.63;1.52;;;;;;;;;;6155133;23;20037;-84
2023/11/19 09:28:05;;;;;;;3.97;1.73;;;;;;;;;;6155920;23;20017;-85
2023/11/19 09:30:33;;;;;;;9.35;2.92;;;;;;;;;;6155379;23;20024;-84
2023/11/19 09:33:01;;;;;;;10.82;2.28;;;;;;;;;;6155883;23;20059;-84
2023/11/19 09:35:29;;;;;;;6.88;1.65;;;;;;;;;;6181271;23;20099;-84
2023/11/19 09:37:56;;;;;;;4.25;2.50;;;;;;;;;;6155828;23;20057;-84
2023/11/19 09:40:24;;;;;;;8.73;1.52;;;;;;;;;;6155609;23;20334;-84
2023/11/19 09:42:51;;;;;;;9.07;2.03;;;;;;;;;;6155303;23;20025;-85
2023/11/19 09:45:21;;;;;;;7.65;1.70;;;;;;;;;;6155257;23;20078;-85
2023/11/19 09:47:52;;;;;;;7.90;1.83;;;;;;;;;;6156122;23;20025;-84
2023/11/19 09:50:20;;;;;;;7.32;1.98;;;;;;;;;;6184087;23;20071;-85
2023/11/19 09:52:48;;;;;;;5.40;1.23;;;;;;;;;;6161110;23;20032;-86
2023/11/19 09:55:15;;;;;;;3.97;1.42;;;;;;;;;;6156860;23;20025;-85
2023/11/19 09:57:44;;;;;;;3.20;1.15;;;;;;;;;;6155484;23;20024;-84
2023/11/19 10:00:13;;;;;;;5.32;1.60;;;;;;;;;;6155576;23;20029;-85
2023/11/19 10:02:40;;;;;;;3.58;1.42;;;;;;;;;;6155671;23;20021;-85
2023/11/19 10:05:08;;;;;;;4.65;1.35;;;;;;;;;;6155153;23;20078;-83
2023/11/19 10:07:35;;;;;;;5.05;1.25;;;;;;;;;;6155662;23;20126;-85
2023/11/19 10:10:04;;;;;;;3.83;0.82;;;;;;;;;;6155132;23;20032;-84
2023/11/19 10:12:31;;;;;;;4.20;1.15;;;;;;;;;;6155371;23;20319;-85
2023/11/19 10:14:59;;;;;;;4.32;0.80;;;;;;;;;;6181178;23;20021;-84
2023/11/19 10:17:29;;;;;;;4.70;1.33;;;;;;;;;;6181461;23;20018;-84
2023/11/19 10:19:57;;;;;;;5.85;1.30;;;;;;;;;;6181429;23;20315;-85
2023/11/19 10:22:24;;;;;;;3.22;1.10;;;;;;;;;;6154962;23;20017;-84
2023/11/19 10:24:52;;;;;;;3.30;1.10;;;;;;;;;;6154770;23;20354;-85
2023/11/19 10:27:25;;;;;;;2.78;0.95;;;;;;;;;;6156222;23;20017;-84
2023/11/19 10:29:53;;;;;;;4.40;1.10;;;;;;;;;;6181711;23;20025;-84
2023/11/19 10:32:20;;;;;;;4.75;0.88;;;;;;;;;;6155145;23;20459;-85
2023/11/19 10:35:06;;;;;;;2.25;0.75;;;;;;;;;;6156232;23;20029;-85
2023/11/19 10:37:35;;;;;;;2.78;0.80;;;;;;;;;;6155584;23;20017;-85
2023/11/19 10:40:05;;;;;;;5.68;1.00;;;;;;;;;;6155434;23;20021;-84
2023/11/19 10:42:32;;;;;;;3.42;0.63;;;;;;;;;;6155099;23;20023;-84
2023/11/19 10:44:59;;;;;;;5.32;0.95;;;;;;;;;;6180739;23;20090;-81
2023/11/19 10:47:28;;;;;;;4.35;0.82;;;;;;;;;;6154366;23;20017;-85
2023/11/19 10:49:58;;;;;;;3.70;1.10;;;;;;;;;;6155944;23;20021;-85
2023/11/19 10:52:27;;;;;;;1.63;0.90;;;;;;;;;;6154900;23;20358;-86
2023/11/19 10:54:57;;;;;;;3.63;0.70;;;;;;;;;;6155105;23;20089;-84
2023/11/19 10:57:26;;;;;;;4.90;0.90;;;;;;;;;;6181445;23;20021;-84
2023/11/19 10:59:56;;;;;;;2.20;0.68;;;;;;;;;;6154697;23;20054;-83
2023/11/19 11:02:25;;;;;;;4.05;1.20;;;;;;;;;;6155221;23;20021;-85
2023/11/19 11:04:52;;;;;;;4.85;1.30;;;;;;;;;;6180486;23;20019;-86
2023/11/19 11:07:26;;;;;;;3.10;0.93;;;;;;;;;;6180830;23;20029;-85
2023/11/19 11:10:07;;;;;;;2.08;0.90;;;;;;;;;;6157608;23;20458;-86
2023/11/19 11:12:39;;;;;;;4.32;0.98;;;;;;;;;;6180416;23;20541;-84
2023/11/19 11:15:07;;;;;;;3.58;0.82;;;;;;;;;;6154580;22;20021;-85
2023/11/19 11:17:36;;;;;;;4.90;2.28;;;;;;;;;;6155350;23;20105;-85
2023/11/19 11:20:04;;;;;;;2.70;1.00;;;;;;;;;;6154996;23;20353;-85
2023/11/19 11:22:37;;;;;;;4.22;1.10;;;;;;;;;;6154671;23;20396;-85
2023/11/19 11:25:16;;;;;;;4.80;0.93;;;;;;;;;;6180109;23;20022;-85
2023/11/19 11:28:02;;;;;;;6.63;1.10;;;;;;;;;;6155318;23;20025;-85
2023/11/19 11:30:39;;;;;;;3.17;1.30;;;;;;;;;;6154938;23;20017;-85
2023/11/19 11:33:15;;;;;;;2.63;1.30;;;;;;;;;;6180745;23;20399;-83
2023/11/19 11:36:02;;;;;;;6.32;1.50;;;;;;;;;;6154223;23;20033;-83
2023/11/19 11:38:30;;;;;;;7.03;1.30;;;;;;;;;;6154709;23;20021;-83
2023/11/19 11:41:20;;;;;;;13.60;1.92;;;;;;;;;;6154800;23;20021;-83
2023/11/19 11:43:51;;;;;;;7.30;1.60;;;;;;;;;;6180253;23;20104;-84
2023/11/19 11:46:35;;;;;;;6.25;1.30;;;;;;;;;;6156168;23;20021;-84
2023/11/19 11:49:03;;;;;;;7.10;1.40;;;;;;;;;;6156350;23;20033;-84
2023/11/19 11:51:46;;;;;;;9.30;1.58;;;;;;;;;;6155798;23;20315;-85
2023/11/19 11:54:19;;;;;;;6.93;1.67;;;;;;;;;;6155505;23;20025;-85
2023/11/19 11:56:47;;;;;;;;;;;;;;;;;;6156450;23;20029;-85
2023/11/19 11:59:20;;;;;;;6.28;1.50;;;;;;;;;;6156094;23;19920;-85
2023/11/19 12:01:58;;;;;;;4.65;1.65;;;;;;;;;;6156607;23;20021;-85
2023/11/19 12:04:29;;;;;;;4.57;1.67;;;;;;;;;;6181389;23;20017;-84
2023/11/19 12:07:06;;;;;;;7.10;1.67;;;;;;;;;;6157137;23;20100;-84
2023/11/19 12:09:42;;;;;;;7.93;2.13;;;;;;;;;;6159717;23;20393;-85
2023/11/19 12:12:19;;;;;;;5.65;1.73;;;;;;;;;;6182147;23;20018;-84
2023/11/19 12:14:59;;;;;;;11.63;2.85;;;;;;;;;;6155589;23;20469;-85
2023/11/19 12:17:33;;;;;;;7.30;1.95;;;;;;;;;;6156069;23;20040;-84
2023/11/19 12:20:01;;;;;;;9.63;1.98;;;;;;;;;;6156331;23;20082;-84
2023/11/19 12:22:28;;;;;;;11.93;1.77;;;;;;;;;;6155757;23;20017;-85
2023/11/19 12:24:56;;;;;;;6.78;1.70;;;;;;;;;;6155837;23;20025;-84
2023/11/19 12:27:23;;;;;;;6.28;1.30;;;;;;;;;;6155364;23;20399;-85
2023/11/19 12:29:50;;;;;;;4.07;1.55;;;;;;;;;;6155634;23;20028;-85
2023/11/19 12:32:18;;;;;;;5.40;1.33;;;;;;;;;;6155754;23;20465;-83
2023/11/19 12:34:46;;;;;;;3.78;1.42;;;;;;;;;;6181254;23;20453;-85
2023/11/19 12:37:16;;;;;;;6.47;1.65;;;;;;;;;;6181319;23;20024;-83
2023/11/19 12:39:44;;;;;;;9.00;1.80;;;;;;;;;;6155857;23;20025;-84
2023/11/19 12:42:12;;;;;;;5.07;1.50;;;;;;;;;;6155883;23;20094;-84
2023/11/19 12:44:40;;;;;;;8.95;1.50;;;;;;;;;;6155937;23;20376;-85
2023/11/19 12:47:11;;;;;;;7.57;2.25;;;;;;;;;;6156646;23;20021;-84
2023/11/19 12:49:38;;;;;;;6.40;1.42;;;;;;;;;;6156989;23;20039;-84
2023/11/19 12:52:12;;;;;;;9.05;1.30;;;;;;;;;;6181590;23;20050;-84
2023/11/19 12:54:40;;;;;;;6.93;1.73;;;;;;;;;;6155310;23;20088;-84
2023/11/19 12:57:08;;;;;;;8.00;1.33;;;;;;;;;;6155003;23;20342;-84
2023/11/19 12:59:35;;;;;;;5.43;1.85;;;;;;;;;;6156015;23;20025;-84
2023/11/19 13:02:05;;;;;;;4.60;0.95;;;;;;;;;;6155718;23;20021;-85
2023/11/19 13:04:33;;;;;;;4.50;1.30;;;;;;;;;;6155676;23;20095;-84
2023/11/19 13:07:03;;;;;;;5.13;1.15;;;;;;;;;;6155606;23;20025;-85
2023/11/19 13:09:32;;;;;;;4.18;1.30;;;;;;;;;;6155718;23;20025;-85
2023/11/19 13:12:03;;;;;;;7.90;1.10;;;;;;;;;;6155792;23;20074;-85
2023/11/19 13:14:38;;;;;;;5.95;1.42;;;;;;;;;;6155615;23;20017;-84
2023/11/19 13:17:05;;;;;;;9.93;1.83;;;;;;;;;;6155692;23;20388;-83
2023/11/19 13:19:33;;;;;;;6.32;1.55;;;;;;;;;;6155427;23;20021;-84
2023/11/19 13:22:00;;;;;;;9.90;1.92;;;;;;;;;;6155328;23;20025;-84
2023/11/19 13:24:27;;;;;;;6.47;1.45;;;;;;;;;;6181315;23;20028;-83
2023/11/19 13:26:55;;;;;;;9.00;1.48;;;;;;;;;;6155493;23;20025;-84
2023/11/19 13:29:23;;;;;;;7.55;1.35;;;;;;;;;;6155206;23;20021;-85
2023/11/19 13:31:50;;;;;;;5.10;1.30;;;;;;;;;;6155041;23;20028;-85
2023/11/19 13:34:17;;;;;;;7.28;1.73;;;;;;;;;;6181232;23;20036;-84
2023/11/19 13:36:44;;;;;;;8.93;2.53;;;;;;;;;;6181524;23;20058;-84
2023/11/19 13:39:12;;;;;;;10.13;1.90;;;;;;;;;;6155656;23;20033;-85
2023/11/19 13:41:40;;;;;;;13.60;5.75;;;;;;;;;;6182024;23;20025;-85
2023/11/19 13:44:07;;;;;;;5.93;1.73;;;;;;;;;;6154955;22;20073;-85
2023/11/19 13:46:34;;;;;;;6.82;1.88;;;;;;;;;;6155361;23;20031;-84
2023/11/19 13:49:03;;;;;;;8.10;2.50;;;;;;;;;;6154864;23;20458;-84
2023/11/19 13:51:32;;;;;;;6.55;1.92;;;;;;;;;;6155321;22;20029;-85
2023/11/19 13:54:00;;;;;;;6.03;1.60;;;;;;;;;;6154791;23;20028;-85
2023/11/19 13:56:27;;;;;;;6.45;1.75;;;;;;;;;;6155470;23;20083;-85
2023/11/19 13:58:54;;;;;;;7.13;2.45;;;;;;;;;;6155428;23;20025;-85
2023/11/19 14:01:22;;;;;;;8.27;2.38;;;;;;;;;;6154909;23;20082;-84
2023/11/19 14:03:52;;;;;;;7.15;1.63;;;;;;;;;;6155997;23;20082;-85
2023/11/19 14:06:20;;;;;;;12.75;2.45;;;;;;;;;;6181365;23;20027;-85
2023/11/19 14:08:48;;;;;;;10.88;2.70;;;;;;;;;;6181290;23;20017;-85
2023/11/19 14:11:15;;;;;;;9.23;2.10;;;;;;;;;;6155696;23;20458;-84
2023/11/19 14:13:43;;;;;;;8.77;2.42;;;;;;;;;;6155282;23;20396;-85
2023/11/19 14:16:12;;;;;;;11.65;3.92;;;;;;;;;;6181366;23;20055;-85
2023/11/19 14:18:39;;;;;;;7.93;1.70;;;;;;;;;;6155247;23;20021;-84
2023/11/19 14:21:07;;;;;;;9.40;1.88;;;;;;;;;;6181265;23;20029;-84
2023/11/19 14:23:34;;;;;;;8.25;2.00;;;;;;;;;;6155198;23;20017;-84
2023/11/19 14:26:01;;;;;;;6.40;1.85;;;;;;;;;;6180942;23;20029;-85
2023/11/19 14:28:31;;;;;;;8.55;2.25;;;;;;;;;;6155200;23;20063;-84
2023/11/19 14:30:58;;;;;;;7.90;1.83;;;;;;;;;;6181380;23;20055;-84
2023/11/19 14:33:25;;;;;;;9.25;3.80;;;;;;;;;;6181493;23;20066;-84
2023/11/19 14:35:53;;;;;;;11.60;2.63;;;;;;;;;;6180995;23;20362;-85
2023/11/19 14:38:20;;;;;;;10.88;1.92;;;;;;;;;;6155383;23;20021;-84
2023/11/19 14:40:47;;;;;;;11.65;2.10;;;;;;;;;;6154701;23;20071;-84
2023/11/19 14:43:15;;;;;;;10.90;2.15;;;;;;;;;;6154977;23;20029;-84
2023/11/19 14:45:43;;;;;;;10.82;1.85;;;;;;;;;;6155024;23;20150;-84
2023/11/19 14:48:17;;;;;;;;;;;;;;;;;;6157177;23;20397;-84
2023/11/19 14:50:45;;;;;;;11.30;2.03;;;;;;;;;;6181197;23;20016;-84